sensor_id;sensor_type;location;lat;lon;timestamp;temperature;humidity
13992;DHT22;7070;53.586;9.692;2022-09-29T00:02:04;6.40;84.60
13992;DHT22;7070;53.586;9.692;2022-09-29T00:04:31;6.30;84.40
13992;DHT22;7070;53.586;9.692;2022-09-29T00:06:58;6.40;84.60
13992;DHT22;7070;53.586;9.692;2022-09-29T00:09:27;6.40;84.60
13992;DHT22;7070;53.586;9.692;2022-09-29T00:11:55;6.30;84.50
13992;DHT22;7070;53.586;9.692;2022-09-29T00:14:23;6.30;84.40
13992;DHT22;7070;53.586;9.692;2022-09-29T00:16:49;6.30;84.50
13992;DHT22;7070;53.586;9.692;2022-09-29T00:19:17;6.30;84.50
13992;DHT22;7070;53.586;9.692;2022-09-29T00:21:44;6.20;84.50
13992;DHT22;7070;53.586;9.692;2022-09-29T00:24:11;6.30;84.70
13992;DHT22;7070;53.586;9.692;2022-09-29T00:26:39;6.20;84.60
13992;DHT22;7070;53.586;9.692;2022-09-29T00:29:09;6.20;84.70
13992;DHT22;7070;53.586;9.692;2022-09-29T00:31:35;6.20;84.70
13992;DHT22;7070;53.586;9.692;2022-09-29T00:34:02;6.20;85.50
13992;DHT22;7070;53.586;9.692;2022-09-29T00:36:29;6.30;84.80
13992;DHT22;7070;53.586;9.692;2022-09-29T00:38:57;6.20;84.70
13992;DHT22;7070;53.586;9.692;2022-09-29T00:41:26;6.20;84.70
13992;DHT22;7070;53.586;9.692;2022-09-29T00:43:57;6.20;84.70
13992;DHT22;7070;53.586;9.692;2022-09-29T00:46:37;6.20;84.80
13992;DHT22;7070;53.586;9.692;2022-09-29T00:49:11;6.20;84.80
13992;DHT22;7070;53.586;9.692;2022-09-29T00:51:39;6.20;84.90
13992;DHT22;7070;53.586;9.692;2022-09-29T00:54:07;6.20;85.00
13992;DHT22;7070;53.586;9.692;2022-09-29T00:56:36;6.20;85.00
13992;DHT22;7070;53.586;9.692;2022-09-29T00:59:07;6.10;84.90
13992;DHT22;7070;53.586;9.692;2022-09-29T01:01:35;6.10;84.90
13992;DHT22;7070;53.586;9.692;2022-09-29T01:04:04;6.20;85.00
13992;DHT22;7070;53.586;9.692;2022-09-29T01:06:34;6.10;84.90
13992;DHT22;7070;53.586;9.692;2022-09-29T01:09:03;6.20;85.10
13992;DHT22;7070;53.586;9.692;2022-09-29T01:11:31;6.20;85.00
13992;DHT22;7070;53.586;9.692;2022-09-29T01:14:00;6.20;85.10
13992;DHT22;7070;53.586;9.692;2022-09-29T01:16:32;6.20;85.20
13992;DHT22;7070;53.586;9.692;2022-09-29T01:19:00;6.20;85.20
13992;DHT22;7070;53.586;9.692;2022-09-29T01:21:35;6.20;85.20
13992;DHT22;7070;53.586;9.692;2022-09-29T01:30:06;6.20;85.00
13992;DHT22;7070;53.586;9.692;2022-09-29T01:32:46;6.30;85.20
13992;DHT22;7070;53.586;9.692;2022-09-29T01:35:21;6.20;85.10
13992;DHT22;7070;53.586;9.692;2022-09-29T01:37:57;6.20;85.00
13992;DHT22;7070;53.586;9.692;2022-09-29T01:40:31;6.20;85.10
13992;DHT22;7070;53.586;9.692;2022-09-29T01:43:03;6.20;85.10
13992;DHT22;7070;53.586;9.692;2022-09-29T01:45:34;6.20;85.10
13992;DHT22;7070;53.586;9.692;2022-09-29T01:48:06;6.20;85.20
13992;DHT22;7070;53.586;9.692;2022-09-29T01:50:38;6.20;85.10
13992;DHT22;7070;53.586;9.692;2022-09-29T01:53:09;6.10;85.00
13992;DHT22;7070;53.586;9.692;2022-09-29T01:55:41;6.20;85.20
13992;DHT22;7070;53.586;9.692;2022-09-29T01:58:14;6.10;85.00
13992;DHT22;7070;53.586;9.692;2022-09-29T02:00:46;6.10;85.00
13992;DHT22;7070;53.586;9.692;2022-09-29T02:03:18;6.10;85.00
13992;DHT22;7070;53.586;9.692;2022-09-29T02:05:50;6.10;85.10
13992;DHT22;7070;53.586;9.692;2022-09-29T02:08:22;6.10;85.10
13992;DHT22;7070;53.586;9.692;2022-09-29T02:10:53;6.10;85.10
13992;DHT22;7070;53.586;9.692;2022-09-29T02:13:23;6.10;85.10
13992;DHT22;7070;53.586;9.692;2022-09-29T02:15:53;6.00;85.10
13992;DHT22;7070;53.586;9.692;2022-09-29T02:18:27;6.00;85.00
13992;DHT22;7070;53.586;9.692;2022-09-29T02:20:56;6.10;85.10
13992;DHT22;7070;53.586;9.692;2022-09-29T02:23:23;6.00;85.10
13992;DHT22;7070;53.586;9.692;2022-09-29T02:25:50;6.00;85.10
13992;DHT22;7070;53.586;9.692;2022-09-29T02:28:18;6.00;85.10
13992;DHT22;7070;53.586;9.692;2022-09-29T02:30:45;6.00;85.10
13992;DHT22;7070;53.586;9.692;2022-09-29T02:33:19;6.00;85.20
13992;DHT22;7070;53.586;9.692;2022-09-29T02:35:58;6.00;85.10
13992;DHT22;7070;53.586;9.692;2022-09-29T02:38:35;6.00;85.20
13992;DHT22;7070;53.586;9.692;2022-09-29T02:41:10;6.00;85.20
13992;DHT22;7070;53.586;9.692;2022-09-29T02:43:54;6.00;85.30
13992;DHT22;7070;53.586;9.692;2022-09-29T02:46:35;6.00;85.30
13992;DHT22;7070;53.586;9.692;2022-09-29T02:49:18;6.00;85.30
13992;DHT22;7070;53.586;9.692;2022-09-29T02:51:54;6.00;85.30
13992;DHT22;7070;53.586;9.692;2022-09-29T02:54:34;6.00;85.20
13992;DHT22;7070;53.586;9.692;2022-09-29T02:57:16;6.00;85.30
13992;DHT22;7070;53.586;9.692;2022-09-29T02:59:51;6.00;85.30
13992;DHT22;7070;53.586;9.692;2022-09-29T03:02:24;6.00;85.30
13992;DHT22;7070;53.586;9.692;2022-09-29T03:04:51;6.00;85.30
13992;DHT22;7070;53.586;9.692;2022-09-29T03:07:20;6.00;85.40
13992;DHT22;7070;53.586;9.692;2022-09-29T03:09:47;6.00;85.40
13992;DHT22;7070;53.586;9.692;2022-09-29T03:12:13;6.00;85.50
13992;DHT22;7070;53.586;9.692;2022-09-29T03:14:40;6.10;85.50
13992;DHT22;7070;53.586;9.692;2022-09-29T03:17:07;6.10;85.50
13992;DHT22;7070;53.586;9.692;2022-09-29T03:19:34;6.10;85.50
13992;DHT22;7070;53.586;9.692;2022-09-29T03:22:00;6.10;85.50
13992;DHT22;7070;53.586;9.692;2022-09-29T03:24:29;6.10;85.50
13992;DHT22;7070;53.586;9.692;2022-09-29T03:26:57;6.10;85.50
13992;DHT22;7070;53.586;9.692;2022-09-29T03:29:23;6.10;85.50
13992;DHT22;7070;53.586;9.692;2022-09-29T03:31:50;6.10;85.40
13992;DHT22;7070;53.586;9.692;2022-09-29T03:34:17;6.10;85.40
13992;DHT22;7070;53.586;9.692;2022-09-29T03:36:44;6.10;85.40
13992;DHT22;7070;53.586;9.692;2022-09-29T03:39:10;6.10;85.50
13992;DHT22;7070;53.586;9.692;2022-09-29T03:41:39;6.10;85.50
13992;DHT22;7070;53.586;9.692;2022-09-29T03:44:05;6.10;85.50
13992;DHT22;7070;53.586;9.692;2022-09-29T03:46:32;6.10;85.50
13992;DHT22;7070;53.586;9.692;2022-09-29T03:48:59;6.10;85.50
13992;DHT22;7070;53.586;9.692;2022-09-29T03:51:26;6.10;85.40
13992;DHT22;7070;53.586;9.692;2022-09-29T03:53:53;6.10;85.50
13992;DHT22;7070;53.586;9.692;2022-09-29T03:56:20;6.10;85.50
13992;DHT22;7070;53.586;9.692;2022-09-29T03:58:48;6.20;85.60
13992;DHT22;7070;53.586;9.692;2022-09-29T04:01:15;6.20;85.60
13992;DHT22;7070;53.586;9.692;2022-09-29T04:03:41;6.10;85.60
13992;DHT22;7070;53.586;9.692;2022-09-29T04:06:08;6.10;85.70
13992;DHT22;7070;53.586;9.692;2022-09-29T04:08:35;6.20;85.90
13992;DHT22;7070;53.586;9.692;2022-09-29T04:11:03;6.20;85.80
13992;DHT22;7070;53.586;9.692;2022-09-29T04:13:30;6.20;85.90
13992;DHT22;7070;53.586;9.692;2022-09-29T04:15:59;6.20;85.80
13992;DHT22;7070;53.586;9.692;2022-09-29T04:18:26;6.20;85.80
13992;DHT22;7070;53.586;9.692;2022-09-29T04:20:53;6.30;85.80
13992;DHT22;7070;53.586;9.692;2022-09-29T04:23:21;6.30;85.80
13992;DHT22;7070;53.586;9.692;2022-09-29T04:25:48;6.30;85.80
13992;DHT22;7070;53.586;9.692;2022-09-29T04:28:15;6.20;85.80
13992;DHT22;7070;53.586;9.692;2022-09-29T04:30:42;6.30;85.90
13992;DHT22;7070;53.586;9.692;2022-09-29T04:33:10;6.30;85.90
13992;DHT22;7070;53.586;9.692;2022-09-29T04:35:36;6.30;85.80
13992;DHT22;7070;53.586;9.692;2022-09-29T04:38:04;6.30;85.80
13992;DHT22;7070;53.586;9.692;2022-09-29T04:40:32;6.30;85.80
13992;DHT22;7070;53.586;9.692;2022-09-29T04:42:59;6.30;85.90
13992;DHT22;7070;53.586;9.692;2022-09-29T04:45:26;6.40;85.90
13992;DHT22;7070;53.586;9.692;2022-09-29T04:47:53;6.30;85.90
13992;DHT22;7070;53.586;9.692;2022-09-29T04:50:21;6.40;85.90
13992;DHT22;7070;53.586;9.692;2022-09-29T04:52:48;6.40;86.00
13992;DHT22;7070;53.586;9.692;2022-09-29T04:55:15;6.30;85.90
13992;DHT22;7070;53.586;9.692;2022-09-29T04:57:42;6.40;86.00
13992;DHT22;7070;53.586;9.692;2022-09-29T05:00:11;6.40;86.00
13992;DHT22;7070;53.586;9.692;2022-09-29T05:02:38;6.40;86.00
13992;DHT22;7070;53.586;9.692;2022-09-29T05:05:06;6.40;86.00
13992;DHT22;7070;53.586;9.692;2022-09-29T05:07:35;6.40;86.00
13992;DHT22;7070;53.586;9.692;2022-09-29T05:10:03;6.40;86.00
13992;DHT22;7070;53.586;9.692;2022-09-29T05:12:30;6.50;86.10
13992;DHT22;7070;53.586;9.692;2022-09-29T05:14:57;6.50;86.10
13992;DHT22;7070;53.586;9.692;2022-09-29T05:17:23;6.50;86.30
13992;DHT22;7070;53.586;9.692;2022-09-29T05:19:50;6.40;86.10
13992;DHT22;7070;53.586;9.692;2022-09-29T05:22:17;6.50;86.30
13992;DHT22;7070;53.586;9.692;2022-09-29T05:24:50;6.60;86.40
13992;DHT22;7070;53.586;9.692;2022-09-29T05:27:17;6.50;86.30
13992;DHT22;7070;53.586;9.692;2022-09-29T05:29:43;6.50;86.30
13992;DHT22;7070;53.586;9.692;2022-09-29T05:32:11;6.60;86.40
13992;DHT22;7070;53.586;9.692;2022-09-29T05:34:38;6.70;86.40
13992;DHT22;7070;53.586;9.692;2022-09-29T05:37:04;6.70;86.50
13992;DHT22;7070;53.586;9.692;2022-09-29T05:39:31;6.70;86.50
13992;DHT22;7070;53.586;9.692;2022-09-29T05:42:00;6.80;86.60
13992;DHT22;7070;53.586;9.692;2022-09-29T05:44:27;6.80;86.50
13992;DHT22;7070;53.586;9.692;2022-09-29T05:46:54;6.80;86.50
13992;DHT22;7070;53.586;9.692;2022-09-29T05:49:21;6.80;86.60
13992;DHT22;7070;53.586;9.692;2022-09-29T05:51:48;6.90;86.70
13992;DHT22;7070;53.586;9.692;2022-09-29T05:54:15;6.90;86.70
13992;DHT22;7070;53.586;9.692;2022-09-29T05:56:42;7.00;86.80
13992;DHT22;7070;53.586;9.692;2022-09-29T05:59:10;7.00;86.70
13992;DHT22;7070;53.586;9.692;2022-09-29T06:01:36;7.10;86.80
13992;DHT22;7070;53.586;9.692;2022-09-29T06:04:03;7.10;86.90
13992;DHT22;7070;53.586;9.692;2022-09-29T06:06:30;7.20;86.90
13992;DHT22;7070;53.586;9.692;2022-09-29T06:08:58;7.20;86.80
13992;DHT22;7070;53.586;9.692;2022-09-29T06:11:26;7.30;86.90
13992;DHT22;7070;53.586;9.692;2022-09-29T06:13:54;7.30;87.00
13992;DHT22;7070;53.586;9.692;2022-09-29T06:16:24;7.40;86.90
13992;DHT22;7070;53.586;9.692;2022-09-29T06:18:51;7.40;86.80
13992;DHT22;7070;53.586;9.692;2022-09-29T06:21:20;7.50;87.00
13992;DHT22;7070;53.586;9.692;2022-09-29T06:23:48;7.50;86.90
13992;DHT22;7070;53.586;9.692;2022-09-29T06:26:16;7.60;87.00
13992;DHT22;7070;53.586;9.692;2022-09-29T06:28:43;7.60;87.00
13992;DHT22;7070;53.586;9.692;2022-09-29T06:31:12;7.60;87.00
13992;DHT22;7070;53.586;9.692;2022-09-29T06:33:41;7.70;87.00
13992;DHT22;7070;53.586;9.692;2022-09-29T06:36:14;7.80;87.00
13992;DHT22;7070;53.586;9.692;2022-09-29T06:38:58;7.80;87.00
13992;DHT22;7070;53.586;9.692;2022-09-29T06:41:25;7.90;87.10
13992;DHT22;7070;53.586;9.692;2022-09-29T06:43:54;7.90;87.00
13992;DHT22;7070;53.586;9.692;2022-09-29T06:46:20;8.00;87.10
13992;DHT22;7070;53.586;9.692;2022-09-29T06:48:49;8.00;87.10
13992;DHT22;7070;53.586;9.692;2022-09-29T06:51:15;8.10;87.10
13992;DHT22;7070;53.586;9.692;2022-09-29T06:53:42;8.10;87.10
13992;DHT22;7070;53.586;9.692;2022-09-29T06:56:09;8.20;87.20
13992;DHT22;7070;53.586;9.692;2022-09-29T06:58:36;8.20;87.10
13992;DHT22;7070;53.586;9.692;2022-09-29T07:01:04;8.30;87.10
13992;DHT22;7070;53.586;9.692;2022-09-29T07:03:32;8.30;87.10
13992;DHT22;7070;53.586;9.692;2022-09-29T07:06:02;8.30;87.00
13992;DHT22;7070;53.586;9.692;2022-09-29T07:08:29;8.40;87.00
13992;DHT22;7070;53.586;9.692;2022-09-29T07:10:56;8.50;87.10
13992;DHT22;7070;53.586;9.692;2022-09-29T07:13:23;8.50;87.10
13992;DHT22;7070;53.586;9.692;2022-09-29T07:15:50;8.60;87.10
13992;DHT22;7070;53.586;9.692;2022-09-29T07:18:17;8.60;87.10
13992;DHT22;7070;53.586;9.692;2022-09-29T07:20:44;8.70;87.20
13992;DHT22;7070;53.586;9.692;2022-09-29T07:23:13;8.80;87.20
13992;DHT22;7070;53.586;9.692;2022-09-29T07:25:40;8.80;87.90
13992;DHT22;7070;53.586;9.692;2022-09-29T07:28:07;8.90;87.20
13992;DHT22;7070;53.586;9.692;2022-09-29T07:30:33;9.00;87.20
13992;DHT22;7070;53.586;9.692;2022-09-29T07:33:01;9.00;87.20
13992;DHT22;7070;53.586;9.692;2022-09-29T07:35:28;9.10;87.20
13992;DHT22;7070;53.586;9.692;2022-09-29T07:37:55;9.20;87.10
13992;DHT22;7070;53.586;9.692;2022-09-29T07:40:23;9.20;87.00
13992;DHT22;7070;53.586;9.692;2022-09-29T07:42:50;9.30;87.00
13992;DHT22;7070;53.586;9.692;2022-09-29T07:45:17;9.40;87.00
13992;DHT22;7070;53.586;9.692;2022-09-29T07:47:44;9.40;87.00
13992;DHT22;7070;53.586;9.692;2022-09-29T07:50:11;9.40;87.00
13992;DHT22;7070;53.586;9.692;2022-09-29T07:52:38;9.50;87.10
13992;DHT22;7070;53.586;9.692;2022-09-29T07:55:05;9.60;87.00
13992;DHT22;7070;53.586;9.692;2022-09-29T07:57:34;9.60;87.00
13992;DHT22;7070;53.586;9.692;2022-09-29T08:00:01;9.70;87.00
13992;DHT22;7070;53.586;9.692;2022-09-29T08:02:27;9.80;87.00
13992;DHT22;7070;53.586;9.692;2022-09-29T08:04:54;9.80;86.90
13992;DHT22;7070;53.586;9.692;2022-09-29T08:07:21;9.90;86.90
13992;DHT22;7070;53.586;9.692;2022-09-29T08:09:48;10.00;85.80
13992;DHT22;7070;53.586;9.692;2022-09-29T08:12:15;10.00;86.00
13992;DHT22;7070;53.586;9.692;2022-09-29T08:14:43;10.10;86.10
13992;DHT22;7070;53.586;9.692;2022-09-29T08:17:10;10.20;86.10
13992;DHT22;7070;53.586;9.692;2022-09-29T08:19:37;10.30;86.10
13992;DHT22;7070;53.586;9.692;2022-09-29T08:22:03;10.40;86.10
13992;DHT22;7070;53.586;9.692;2022-09-29T08:24:30;10.60;86.20
13992;DHT22;7070;53.586;9.692;2022-09-29T08:26:57;10.70;86.20
13992;DHT22;7070;53.586;9.692;2022-09-29T08:29:24;10.70;86.00
13992;DHT22;7070;53.586;9.692;2022-09-29T08:31:52;10.90;86.10
13992;DHT22;7070;53.586;9.692;2022-09-29T08:34:21;11.00;86.00
13992;DHT22;7070;53.586;9.692;2022-09-29T08:36:48;11.10;86.10
13992;DHT22;7070;53.586;9.692;2022-09-29T08:39:15;11.20;86.10
13992;DHT22;7070;53.586;9.692;2022-09-29T08:41:49;11.30;86.10
13992;DHT22;7070;53.586;9.692;2022-09-29T08:44:20;11.50;86.10
13992;DHT22;7070;53.586;9.692;2022-09-29T08:46:53;11.50;86.00
13992;DHT22;7070;53.586;9.692;2022-09-29T08:49:24;11.70;86.00
13992;DHT22;7070;53.586;9.692;2022-09-29T08:51:55;11.90;86.10
13992;DHT22;7070;53.586;9.692;2022-09-29T08:54:28;12.00;86.10
13992;DHT22;7070;53.586;9.692;2022-09-29T08:56:56;12.10;85.90
13992;DHT22;7070;53.586;9.692;2022-09-29T08:59:23;12.20;85.80
13992;DHT22;7070;53.586;9.692;2022-09-29T09:02:07;12.30;85.80
13992;DHT22;7070;53.586;9.692;2022-09-29T09:04:59;12.50;85.80
13992;DHT22;7070;53.586;9.692;2022-09-29T09:07:38;12.60;85.80
13992;DHT22;7070;53.586;9.692;2022-09-29T09:10:18;12.80;85.80
13992;DHT22;7070;53.586;9.692;2022-09-29T09:13:00;12.90;85.70
13992;DHT22;7070;53.586;9.692;2022-09-29T09:15:40;13.00;85.50
13992;DHT22;7070;53.586;9.692;2022-09-29T09:18:24;13.20;85.70
13992;DHT22;7070;53.586;9.692;2022-09-29T09:21:00;13.30;85.40
13992;DHT22;7070;53.586;9.692;2022-09-29T09:23:35;13.50;85.40
13992;DHT22;7070;53.586;9.692;2022-09-29T09:26:07;13.50;85.10
13992;DHT22;7070;53.586;9.692;2022-09-29T09:28:38;13.70;85.10
13992;DHT22;7070;53.586;9.692;2022-09-29T09:31:09;13.70;84.80
13992;DHT22;7070;53.586;9.692;2022-09-29T09:33:42;13.90;84.60
13992;DHT22;7070;53.586;9.692;2022-09-29T09:36:15;13.90;84.20
13992;DHT22;7070;53.586;9.692;2022-09-29T09:38:51;14.00;84.10
13992;DHT22;7070;53.586;9.692;2022-09-29T09:41:21;14.00;83.90
13992;DHT22;7070;53.586;9.692;2022-09-29T09:43:53;14.00;83.70
13992;DHT22;7070;53.586;9.692;2022-09-29T09:46:26;14.00;83.70
13992;DHT22;7070;53.586;9.692;2022-09-29T09:49:00;14.00;83.50
13992;DHT22;7070;53.586;9.692;2022-09-29T09:51:40;14.10;83.40
13992;DHT22;7070;53.586;9.692;2022-09-29T09:54:11;14.10;83.40
13992;DHT22;7070;53.586;9.692;2022-09-29T09:57:06;14.10;83.40
13992;DHT22;7070;53.586;9.692;2022-09-29T09:59:44;14.10;83.20
13992;DHT22;7070;53.586;9.692;2022-09-29T10:02:16;14.10;83.20
13992;DHT22;7070;53.586;9.692;2022-09-29T10:04:48;14.10;83.10
13992;DHT22;7070;53.586;9.692;2022-09-29T10:07:17;14.10;82.90
13992;DHT22;7070;53.586;9.692;2022-09-29T10:09:44;14.10;82.60
13992;DHT22;7070;53.586;9.692;2022-09-29T10:12:14;14.10;82.60
13992;DHT22;7070;53.586;9.692;2022-09-29T10:14:46;14.00;82.50
13992;DHT22;7070;53.586;9.692;2022-09-29T10:17:15;14.10;82.50
13992;DHT22;7070;53.586;9.692;2022-09-29T10:19:55;14.10;82.50
13992;DHT22;7070;53.586;9.692;2022-09-29T10:22:23;14.10;82.40
13992;DHT22;7070;53.586;9.692;2022-09-29T10:24:51;14.10;82.40
13992;DHT22;7070;53.586;9.692;2022-09-29T10:27:22;14.10;82.40
13992;DHT22;7070;53.586;9.692;2022-09-29T10:29:51;14.10;82.20
13992;DHT22;7070;53.586;9.692;2022-09-29T10:32:22;14.10;82.10
13992;DHT22;7070;53.586;9.692;2022-09-29T10:35:00;14.10;82.00
13992;DHT22;7070;53.586;9.692;2022-09-29T10:37:33;14.10;82.00
13992;DHT22;7070;53.586;9.692;2022-09-29T10:40:12;14.20;82.00
13992;DHT22;7070;53.586;9.692;2022-09-29T10:42:40;14.20;81.90
13992;DHT22;7070;53.586;9.692;2022-09-29T10:45:12;14.20;81.80
13992;DHT22;7070;53.586;9.692;2022-09-29T10:47:40;14.20;81.90
13992;DHT22;7070;53.586;9.692;2022-09-29T10:50:13;14.30;82.00
13992;DHT22;7070;53.586;9.692;2022-09-29T10:52:42;14.30;81.80
13992;DHT22;7070;53.586;9.692;2022-09-29T10:55:16;14.30;81.80
13992;DHT22;7070;53.586;9.692;2022-09-29T10:57:44;14.40;81.90
13992;DHT22;7070;53.586;9.692;2022-09-29T11:00:24;14.40;81.80
13992;DHT22;7070;53.586;9.692;2022-09-29T11:02:52;14.50;81.90
13992;DHT22;7070;53.586;9.692;2022-09-29T11:05:25;14.60;82.00
13992;DHT22;7070;53.586;9.692;2022-09-29T11:07:53;14.70;82.10
13992;DHT22;7070;53.586;9.692;2022-09-29T11:10:31;14.70;82.00
13992;DHT22;7070;53.586;9.692;2022-09-29T11:13:31;14.80;82.00
13992;DHT22;7070;53.586;9.692;2022-09-29T11:16:03;14.90;82.00
13992;DHT22;7070;53.586;9.692;2022-09-29T11:18:34;14.90;81.90
13992;DHT22;7070;53.586;9.692;2022-09-29T11:21:13;15.00;81.80
13992;DHT22;7070;53.586;9.692;2022-09-29T11:23:50;15.10;81.80
13992;DHT22;7070;53.586;9.692;2022-09-29T11:26:27;15.10;81.60
13992;DHT22;7070;53.586;9.692;2022-09-29T11:29:14;15.20;81.40
13992;DHT22;7070;53.586;9.692;2022-09-29T11:32:02;15.10;81.20
13992;DHT22;7070;53.586;9.692;2022-09-29T11:34:50;15.10;81.00
13992;DHT22;7070;53.586;9.692;2022-09-29T11:37:30;15.10;81.10
13992;DHT22;7070;53.586;9.692;2022-09-29T11:40:02;15.00;81.00
13992;DHT22;7070;53.586;9.692;2022-09-29T11:42:48;15.00;80.90
13992;DHT22;7070;53.586;9.692;2022-09-29T11:45:26;15.10;81.10
13992;DHT22;7070;53.586;9.692;2022-09-29T11:48:45;15.10;81.00
13992;DHT22;7070;53.586;9.692;2022-09-29T11:51:23;15.10;80.90
13992;DHT22;7070;53.586;9.692;2022-09-29T11:54:11;15.10;80.90
13992;DHT22;7070;53.586;9.692;2022-09-29T11:56:47;15.10;80.70
13992;DHT22;7070;53.586;9.692;2022-09-29T11:59:31;15.10;80.70
13992;DHT22;7070;53.586;9.692;2022-09-29T12:02:22;15.20;80.70
13992;DHT22;7070;53.586;9.692;2022-09-29T12:04:58;15.20;80.70
13992;DHT22;7070;53.586;9.692;2022-09-29T12:07:34;15.30;80.70
13992;DHT22;7070;53.586;9.692;2022-09-29T12:10:18;15.30;80.60
13992;DHT22;7070;53.586;9.692;2022-09-29T12:12:54;15.30;80.50
13992;DHT22;7070;53.586;9.692;2022-09-29T12:15:30;15.40;81.10
13992;DHT22;7070;53.586;9.692;2022-09-29T12:18:02;15.40;80.30
13992;DHT22;7070;53.586;9.692;2022-09-29T12:20:33;15.40;80.10
13992;DHT22;7070;53.586;9.692;2022-09-29T12:23:06;15.40;80.00
13992;DHT22;7070;53.586;9.692;2022-09-29T12:25:39;15.50;80.10
13992;DHT22;7070;53.586;9.692;2022-09-29T12:28:11;15.50;80.00
13992;DHT22;7070;53.586;9.692;2022-09-29T12:30:44;15.50;79.90
13992;DHT22;7070;53.586;9.692;2022-09-29T12:33:15;15.60;80.00
13992;DHT22;7070;53.586;9.692;2022-09-29T12:35:49;15.60;79.80
13992;DHT22;7070;53.586;9.692;2022-09-29T12:38:21;15.60;79.70
13992;DHT22;7070;53.586;9.692;2022-09-29T12:41:01;15.70;79.60
13992;DHT22;7070;53.586;9.692;2022-09-29T12:43:31;15.70;79.50
13992;DHT22;7070;53.586;9.692;2022-09-29T12:46:08;15.70;79.40
13992;DHT22;7070;53.586;9.692;2022-09-29T12:48:45;15.70;79.40
13992;DHT22;7070;53.586;9.692;2022-09-29T12:51:21;15.70;79.50
13992;DHT22;7070;53.586;9.692;2022-09-29T12:53:59;15.70;79.30
13992;DHT22;7070;53.586;9.692;2022-09-29T12:56:35;15.60;79.00
13992;DHT22;7070;53.586;9.692;2022-09-29T12:59:06;15.60;78.90
13992;DHT22;7070;53.586;9.692;2022-09-29T13:01:36;15.50;78.60
13992;DHT22;7070;53.586;9.692;2022-09-29T13:04:24;15.50;78.60
13992;DHT22;7070;53.586;9.692;2022-09-29T13:10:26;15.30;78.60
13992;DHT22;7070;53.586;9.692;2022-09-29T13:13:28;15.20;78.70
13992;DHT22;7070;53.586;9.692;2022-09-29T13:16:08;15.10;78.80
13992;DHT22;7070;53.586;9.692;2022-09-29T13:18:57;15.00;79.00
13992;DHT22;7070;53.586;9.692;2022-09-29T13:21:32;14.90;78.90
13992;DHT22;7070;53.586;9.692;2022-09-29T13:24:15;14.90;79.10
13992;DHT22;7070;53.586;9.692;2022-09-29T13:27:07;14.80;79.20
13992;DHT22;7070;53.586;9.692;2022-09-29T13:29:43;14.80;79.40
13992;DHT22;7070;53.586;9.692;2022-09-29T13:32:12;14.70;79.50
13992;DHT22;7070;53.586;9.692;2022-09-29T13:34:46;14.70;79.60
13992;DHT22;7070;53.586;9.692;2022-09-29T13:37:14;14.70;79.70
13992;DHT22;7070;53.586;9.692;2022-09-29T13:39:48;14.70;79.80
13992;DHT22;7070;53.586;9.692;2022-09-29T13:42:40;14.70;80.00
13992;DHT22;7070;53.586;9.692;2022-09-29T13:51:45;14.60;80.20
13992;DHT22;7070;53.586;9.692;2022-09-29T13:54:28;14.60;80.40
13992;DHT22;7070;53.586;9.692;2022-09-29T13:57:19;14.60;80.40
13992;DHT22;7070;53.586;9.692;2022-09-29T14:00:03;14.60;80.60
13992;DHT22;7070;53.586;9.692;2022-09-29T14:02:34;14.60;80.70
13992;DHT22;7070;53.586;9.692;2022-09-29T14:05:03;14.70;80.80
13992;DHT22;7070;53.586;9.692;2022-09-29T14:07:36;14.60;80.70
13992;DHT22;7070;53.586;9.692;2022-09-29T14:10:13;14.70;80.90
13992;DHT22;7070;53.586;9.692;2022-09-29T14:12:44;14.70;80.90
13992;DHT22;7070;53.586;9.692;2022-09-29T14:15:15;14.70;81.00
13992;DHT22;7070;53.586;9.692;2022-09-29T14:17:49;14.80;81.10
13992;DHT22;7070;53.586;9.692;2022-09-29T14:20:20;14.80;81.10
13992;DHT22;7070;53.586;9.692;2022-09-29T14:22:59;14.80;81.10
13992;DHT22;7070;53.586;9.692;2022-09-29T14:25:30;14.80;81.10
13992;DHT22;7070;53.586;9.692;2022-09-29T14:27:58;14.90;81.30
13992;DHT22;7070;53.586;9.692;2022-09-29T14:30:40;14.90;81.30
13992;DHT22;7070;53.586;9.692;2022-09-29T14:33:12;15.00;81.40
13992;DHT22;7070;53.586;9.692;2022-09-29T14:35:43;15.00;81.20
13992;DHT22;7070;53.586;9.692;2022-09-29T14:38:14;15.10;81.20
13992;DHT22;7070;53.586;9.692;2022-09-29T14:40:53;15.00;81.10
13992;DHT22;7070;53.586;9.692;2022-09-29T14:43:25;15.00;81.00
13992;DHT22;7070;53.586;9.692;2022-09-29T14:46:17;15.00;80.90
13992;DHT22;7070;53.586;9.692;2022-09-29T14:49:23;15.00;80.80
13992;DHT22;7070;53.586;9.692;2022-09-29T14:52:16;14.90;80.80
13992;DHT22;7070;53.586;9.692;2022-09-29T14:54:53;14.80;80.70
13992;DHT22;7070;53.586;9.692;2022-09-29T14:57:40;14.80;80.80
13992;DHT22;7070;53.586;9.692;2022-09-29T15:00:13;14.70;80.80
13992;DHT22;7070;53.586;9.692;2022-09-29T15:02:44;14.70;80.80
13992;DHT22;7070;53.586;9.692;2022-09-29T15:05:24;14.60;80.90
13992;DHT22;7070;53.586;9.692;2022-09-29T15:07:51;14.60;80.90
13992;DHT22;7070;53.586;9.692;2022-09-29T15:10:24;14.50;80.90
13992;DHT22;7070;53.586;9.692;2022-09-29T15:12:51;14.50;80.90
13992;DHT22;7070;53.586;9.692;2022-09-29T15:15:33;14.40;81.00
13992;DHT22;7070;53.586;9.692;2022-09-29T15:18:10;14.40;80.90
13992;DHT22;7070;53.586;9.692;2022-09-29T15:20:54;14.40;81.10
13992;DHT22;7070;53.586;9.692;2022-09-29T15:26:30;14.20;81.00
13992;DHT22;7070;53.586;9.692;2022-09-29T15:28:58;14.20;81.20
13992;DHT22;7070;53.586;9.692;2022-09-29T15:31:27;14.20;81.20
13992;DHT22;7070;53.586;9.692;2022-09-29T15:33:55;14.10;81.20
13992;DHT22;7070;53.586;9.692;2022-09-29T15:36:24;14.10;81.30
13992;DHT22;7070;53.586;9.692;2022-09-29T15:38:54;14.10;81.30
13992;DHT22;7070;53.586;9.692;2022-09-29T15:41:24;14.00;81.40
13992;DHT22;7070;53.586;9.692;2022-09-29T15:43:53;14.00;81.50
13992;DHT22;7070;53.586;9.692;2022-09-29T15:46:22;14.00;81.40
13992;DHT22;7070;53.586;9.692;2022-09-29T15:49:06;14.00;81.50
13992;DHT22;7070;53.586;9.692;2022-09-29T15:51:35;13.90;81.30
13992;DHT22;7070;53.586;9.692;2022-09-29T15:54:03;13.90;81.50
13992;DHT22;7070;53.586;9.692;2022-09-29T15:56:34;13.90;82.30
13992;DHT22;7070;53.586;9.692;2022-09-29T15:59:37;13.90;81.70
13992;DHT22;7070;53.586;9.692;2022-09-29T16:02:12;13.90;81.70
13992;DHT22;7070;53.586;9.692;2022-09-29T16:04:41;13.80;81.80
13992;DHT22;7070;53.586;9.692;2022-09-29T16:07:19;13.90;81.70
13992;DHT22;7070;53.586;9.692;2022-09-29T16:09:48;13.80;81.70
13992;DHT22;7070;53.586;9.692;2022-09-29T16:12:17;13.80;81.80
13992;DHT22;7070;53.586;9.692;2022-09-29T16:14:45;13.80;81.80
13992;DHT22;7070;53.586;9.692;2022-09-29T16:17:12;13.80;81.90
13992;DHT22;7070;53.586;9.692;2022-09-29T16:19:44;13.80;81.90
13992;DHT22;7070;53.586;9.692;2022-09-29T16:22:19;13.80;81.90
13992;DHT22;7070;53.586;9.692;2022-09-29T16:24:54;13.80;82.00
13992;DHT22;7070;53.586;9.692;2022-09-29T16:27:45;13.70;81.90
13992;DHT22;7070;53.586;9.692;2022-09-29T16:30:20;13.70;82.00
13992;DHT22;7070;53.586;9.692;2022-09-29T16:33:03;13.70;82.10
13992;DHT22;7070;53.586;9.692;2022-09-29T16:35:40;12.00;80.30
13992;DHT22;7070;53.586;9.692;2022-09-29T16:38:14;13.60;82.00
13992;DHT22;7070;53.586;9.692;2022-09-29T16:40:42;13.50;81.80
13992;DHT22;7070;53.586;9.692;2022-09-29T16:43:18;13.50;82.00
13992;DHT22;7070;53.586;9.692;2022-09-29T16:45:47;13.50;82.00